createdAt,value
2023-03-27T00:41:38.617Z,6.30
2023-03-27T00:44:27.421Z,6.20
2023-03-27T00:46:57.162Z,6.10
2023-03-27T00:49:29.797Z,6.10
2023-03-27T00:54:30.355Z,6.00
2023-03-27T00:57:10.837Z,6.00
2023-03-27T00:59:42.118Z,6.00
2023-03-27T01:04:38.989Z,5.90
2023-03-27T01:07:07.536Z,5.90
2023-03-27T01:12:23.786Z,5.80
2023-03-27T01:15:21.758Z,5.80
2023-03-27T01:21:13.712Z,5.70
2023-03-27T01:24:21.023Z,5.70
2023-03-27T01:27:16.226Z,5.60
2023-03-27T01:30:10.386Z,5.50
2023-03-27T01:35:42.410Z,5.40
2023-03-27T01:38:30.714Z,5.30
2023-03-27T01:41:27.264Z,5.30
2023-03-27T01:44:07.103Z,5.30
2023-03-27T01:47:08.229Z,5.30
2023-03-27T01:49:41.707Z,5.30
2023-03-27T01:52:15.576Z,5.20
2023-03-27T01:54:49.862Z,5.20
2023-03-27T01:57:24.908Z,5.20
2023-03-27T02:00:18.726Z,5.10
2023-03-27T02:03:00.345Z,4.90
2023-03-27T02:05:40.650Z,4.80
2023-03-27T02:08:40.555Z,4.90
2023-03-27T02:13:56.624Z,4.70
2023-03-27T02:16:28.882Z,4.50
2023-03-27T02:19:03.117Z,4.40
2023-03-27T02:24:02.457Z,4.30
2023-03-27T02:26:33.645Z,4.30
2023-03-27T02:29:24.608Z,4.20
2023-03-27T02:32:00.188Z,4.20
2023-03-27T02:34:57.057Z,4.10
2023-03-27T02:37:55.256Z,4.00
2023-03-27T02:40:43.084Z,3.90
2023-03-27T02:43:16.373Z,3.90
2023-03-27T02:46:21.730Z,3.80
2023-03-27T02:49:03.632Z,3.70
2023-03-27T02:52:08.025Z,3.60
2023-03-27T02:54:51.072Z,3.60
2023-03-27T02:57:26.577Z,3.50
2023-03-27T02:59:57.957Z,3.50
2023-03-27T03:02:30.564Z,3.40
2023-03-27T03:05:06.157Z,3.40
2023-03-27T03:54:32.948Z,2.90
2023-03-27T04:09:16.929Z,2.70
2023-03-27T04:24:03.042Z,2.40
2023-03-27T04:41:15.446Z,2.40
2023-03-27T04:51:08.343Z,2.40
2023-03-27T04:56:06.448Z,2.60
2023-03-27T05:01:05.683Z,2.50
2023-03-27T05:08:32.924Z,2.40
2023-03-27T05:25:59.375Z,2.10
2023-03-27T05:33:24.479Z,2.20
2023-03-27T05:38:20.411Z,2.20
2023-03-27T05:50:37.638Z,2.30
2023-03-27T05:53:10.060Z,2.20
2023-03-27T06:08:02.294Z,2.50
2023-03-27T06:10:30.625Z,2.60
2023-03-27T06:13:08.883Z,2.60
2023-03-27T06:15:39.383Z,2.70
2023-03-27T06:23:06.268Z,3.00
2023-03-27T06:25:35.209Z,3.10
2023-03-27T06:33:00.930Z,3.20
2023-03-27T06:35:31.039Z,3.20
2023-03-27T06:40:32.191Z,3.10
2023-03-27T06:43:02.729Z,3.20
2023-03-27T06:45:45.561Z,3.20
2023-03-27T06:48:20.397Z,3.20
2023-03-27T06:50:51.426Z,3.20
2023-03-27T06:55:56.867Z,3.10
2023-03-27T07:03:21.803Z,3.40
2023-03-27T07:08:23.271Z,3.40
2023-03-27T07:26:01.420Z,4.00
2023-03-27T07:45:50.631Z,4.30
2023-03-27T07:48:19.488Z,4.50
2023-03-27T07:58:29.023Z,4.60
2023-03-27T08:01:02.220Z,4.70
2023-03-27T08:06:01.222Z,4.80
2023-03-27T08:40:48.135Z,5.50
2023-03-27T08:43:26.375Z,5.90
2023-03-27T08:46:06.446Z,6.30
2023-03-27T08:49:19.031Z,5.80
2023-03-27T08:52:04.283Z,5.80
2023-03-27T08:54:37.340Z,5.50
2023-03-27T08:57:21.417Z,5.30
2023-03-27T09:02:48.490Z,5.40
2023-03-27T09:05:56.770Z,5.60
2023-03-27T09:09:04.143Z,6.10
2023-03-27T09:14:07.747Z,5.80
2023-03-27T09:16:48.775Z,6.20
2023-03-27T09:19:47.596Z,5.90
2023-03-27T09:22:23.838Z,6.00
2023-03-27T09:24:55.127Z,5.90
2023-03-27T09:27:32.850Z,6.20
2023-03-27T09:30:15.496Z,6.60
2023-03-27T09:35:15.619Z,7.00
2023-03-27T09:40:30.784Z,7.60
2023-03-27T09:43:08.674Z,7.40
2023-03-27T09:45:40.858Z,7.20
2023-03-27T09:48:27.679Z,7.10
2023-03-27T09:53:24.102Z,7.00
2023-03-27T09:56:04.855Z,7.00
2023-03-27T10:01:16.565Z,7.00
2023-03-27T10:03:52.117Z,7.30
2023-03-27T10:06:48.233Z,7.20
2023-03-27T10:09:34.994Z,7.00
2023-03-27T10:12:08.159Z,6.90
2023-03-27T10:14:52.385Z,6.90
2023-03-27T10:17:37.445Z,6.90
2023-03-27T10:20:17.600Z,7.30
2023-03-27T10:22:56.795Z,7.50
2023-03-27T10:25:34.571Z,7.60
2023-03-27T10:28:30.708Z,7.80
2023-03-27T10:31:05.812Z,8.10
2023-03-27T10:33:37.045Z,7.80
2023-03-27T10:36:08.143Z,7.70
2023-03-27T10:38:38.618Z,7.80
2023-03-27T10:41:28.572Z,7.90
2023-03-27T10:43:57.491Z,8.20
2023-03-27T10:46:29.204Z,8.20
2023-03-27T10:51:45.578Z,8.00
2023-03-27T10:54:35.121Z,8.10
2023-03-27T10:57:17.007Z,8.10
2023-03-27T10:59:55.905Z,7.90
2023-03-27T11:02:40.867Z,8.00
2023-03-27T11:05:26.783Z,8.20
2023-03-27T11:10:29.477Z,8.40
2023-03-27T11:13:23.356Z,8.20
2023-03-27T11:16:03.963Z,8.20
2023-03-27T11:18:40.526Z,8.10
2023-03-27T11:21:35.088Z,7.40
2023-03-27T11:24:04.183Z,6.10
2023-03-27T11:26:51.593Z,7.00
2023-03-27T11:29:29.653Z,6.50
2023-03-27T11:32:06.283Z,6.20
2023-03-27T11:34:57.830Z,5.40
2023-03-27T11:37:34.502Z,5.40
2023-03-27T11:40:27.164Z,5.40
2023-03-27T11:45:25.137Z,5.60
2023-03-27T11:48:37.609Z,6.30
2023-03-27T11:51:29.840Z,6.30
2023-03-27T11:54:20.484Z,7.00
2023-03-27T11:56:56.383Z,7.00
2023-03-27T11:59:59.822Z,7.20
2023-03-27T12:05:25.253Z,8.20
2023-03-27T12:08:12.030Z,8.20
2023-03-27T12:10:43.777Z,7.90
2023-03-27T12:13:38.608Z,8.20
2023-03-27T12:16:30.325Z,8.30
2023-03-27T12:19:38.511Z,8.10
2023-03-27T12:22:24.007Z,8.40
2023-03-27T12:27:54.478Z,8.40
2023-03-27T12:30:45.918Z,8.40
2023-03-27T12:33:43.091Z,8.30
2023-03-27T12:36:20.819Z,8.10
2023-03-27T12:41:29.347Z,6.70
2023-03-27T12:44:06.868Z,5.40
2023-03-27T12:46:40.853Z,4.60
2023-03-27T12:54:39.216Z,4.60
2023-03-27T12:57:15.010Z,4.50
2023-03-27T12:59:56.125Z,4.80
2023-03-27T13:02:39.450Z,5.50
2023-03-27T13:05:37.441Z,6.50
2023-03-27T13:08:13.465Z,6.90
2023-03-27T13:11:18.560Z,7.30
2023-03-27T13:19:20.571Z,8.20
2023-03-27T13:22:05.182Z,8.20
2023-03-27T13:25:14.648Z,7.50
2023-03-27T13:30:41.888Z,6.60
2023-03-27T13:33:29.069Z,6.70
2023-03-27T13:36:02.797Z,7.30
2023-03-27T13:38:55.021Z,7.40
2023-03-27T13:41:46.651Z,7.90
2023-03-27T13:47:16.154Z,9.50
2023-03-27T13:50:39.163Z,9.20
2023-03-27T13:53:37.844Z,8.70
2023-03-27T13:56:25.929Z,9.00
2023-03-27T13:59:29.789Z,9.20
2023-03-27T14:02:16.509Z,9.80
2023-03-27T14:05:22.968Z,10.30
2023-03-27T14:08:26.556Z,9.70
2023-03-27T14:11:41.965Z,9.20
2023-03-27T14:14:41.515Z,9.40
2023-03-27T14:17:47.528Z,8.60
2023-03-27T14:20:26.051Z,8.70
2023-03-27T14:23:07.406Z,8.90
2023-03-27T14:25:38.413Z,8.90
2023-03-27T14:28:10.322Z,8.70
2023-03-27T14:30:48.416Z,8.50
2023-03-27T14:33:20.575Z,8.30
2023-03-27T14:35:56.740Z,8.40
2023-03-27T14:38:33.308Z,8.40
2023-03-27T14:41:04.387Z,8.50
2023-03-27T14:43:32.268Z,8.30
2023-03-27T14:46:04.405Z,8.20
2023-03-27T14:48:37.318Z,8.20
2023-03-27T14:51:17.474Z,9.00
2023-03-27T14:53:49.765Z,8.10
2023-03-27T14:56:37.410Z,7.80
2023-03-27T14:59:11.974Z,7.90
2023-03-27T15:04:11.420Z,7.90
2023-03-27T15:06:39.536Z,8.50
2023-03-27T15:09:19.306Z,9.10
2023-03-27T15:11:55.895Z,9.70
2023-03-27T15:14:29.179Z,9.50
2023-03-27T15:17:19.328Z,9.70
2023-03-27T15:19:56.140Z,10.50
2023-03-27T15:22:37.822Z,10.50
2023-03-27T15:27:40.183Z,11.00
2023-03-27T15:30:30.717Z,10.80
2023-03-27T15:33:06.056Z,10.90
2023-03-27T15:35:39.098Z,10.80
2023-03-27T15:38:13.046Z,11.20
2023-03-27T15:40:43.408Z,11.50
2023-03-27T15:43:13.618Z,11.60
2023-03-27T15:45:44.208Z,10.80
2023-03-27T15:48:21.295Z,10.80
2023-03-27T15:51:04.161Z,10.50
2023-03-27T15:53:43.251Z,10.60
2023-03-27T15:56:38.894Z,10.40
2023-03-27T15:59:09.830Z,10.50
2023-03-27T16:01:44.167Z,10.60
2023-03-27T16:06:47.340Z,9.90
2023-03-27T16:09:23.358Z,9.70
2023-03-27T16:11:54.246Z,9.60
2023-03-27T16:14:33.088Z,9.70
2023-03-27T16:17:28.537Z,9.70
2023-03-27T16:20:08.177Z,9.70
2023-03-27T16:22:38.113Z,10.20
2023-03-27T16:25:12.210Z,10.40
2023-03-27T16:28:13.572Z,10.70
2023-03-27T16:33:20.032Z,9.80
2023-03-27T16:35:50.417Z,9.30
2023-03-27T16:38:18.623Z,9.90
2023-03-27T16:40:46.200Z,10.10
2023-03-27T16:45:45.193Z,9.20
2023-03-27T16:48:15.594Z,8.90
2023-03-27T17:05:33.955Z,7.30
2023-03-27T17:08:02.252Z,7.70
2023-03-27T17:35:06.483Z,7.10
2023-03-27T17:37:35.812Z,7.10
2023-03-27T18:02:21.730Z,4.90
2023-03-27T18:04:52.304Z,4.90
2023-03-27T18:07:21.341Z,5.00
2023-03-27T18:34:26.855Z,4.50
2023-03-27T19:16:33.785Z,4.00
2023-03-27T19:26:24.845Z,3.90
2023-03-27T19:33:47.522Z,3.80
2023-03-27T19:41:11.398Z,3.60
2023-03-27T19:46:15.860Z,3.60
2023-03-27T19:48:45.677Z,3.60
2023-03-27T20:11:07.302Z,3.20
2023-03-27T20:31:06.667Z,2.90
2023-03-27T20:33:33.898Z,2.90
2023-03-27T20:36:01.463Z,3.00
2023-03-27T20:41:03.899Z,3.20
2023-03-27T20:43:35.508Z,3.10
2023-03-27T20:46:04.578Z,3.30
2023-03-27T20:48:54.103Z,3.00
2023-03-27T20:51:24.398Z,2.90
2023-03-27T20:56:24.549Z,2.60
2023-03-27T21:01:19.815Z,2.70
2023-03-27T21:06:20.631Z,2.70
2023-03-27T21:30:57.026Z,1.90
2023-03-27T21:40:47.488Z,1.80
2023-03-27T21:43:14.828Z,1.70
2023-03-27T22:00:28.992Z,1.50
2023-03-27T22:20:09.956Z,1.90
2023-03-27T22:25:05.259Z,2.00
2023-03-27T22:34:54.561Z,1.60
2023-03-27T22:39:52.499Z,1.90
2023-03-27T22:57:04.149Z,1.90
2023-03-27T23:01:58.819Z,1.80
2023-03-27T23:14:16.356Z,1.30
2023-03-27T23:24:06.188Z,1.10
2023-03-27T23:36:25.115Z,0.90
2023-03-27T23:38:53.582Z,0.90
2023-03-27T23:41:21.084Z,0.90
2023-03-27T23:43:49.044Z,0.90
2023-03-27T23:46:16.862Z,1.00
2023-03-27T23:48:44.888Z,0.90
2023-03-27T23:51:14.643Z,1.00
2023-03-27T23:53:42.365Z,0.90
2023-03-27T23:56:10.033Z,0.80
2023-03-27T23:58:37.627Z,0.90
